createdAt,value
2022-08-22T00:02:54.176Z,1.00
2022-08-22T00:03:15.333Z,99.90
2022-08-22T00:07:58.648Z,99.90
2022-08-22T00:12:47.136Z,99.90
2022-08-22T00:17:42.639Z,1.00
2022-08-22T00:22:39.061Z,1.00
2022-08-22T00:27:28.075Z,1.00
2022-08-22T00:32:16.915Z,1.00
2022-08-22T00:37:07.848Z,99.90
2022-08-22T00:42:29.517Z,1.00
2022-08-22T00:48:00.520Z,1.00
2022-08-22T00:53:16.565Z,1.00
2022-08-22T00:58:32.981Z,1.00
2022-08-22T01:03:47.862Z,1.00
2022-08-22T01:08:55.351Z,95.90
2022-08-22T01:13:55.296Z,1.00
2022-08-22T01:19:01.207Z,1.00
2022-08-22T01:24:20.877Z,1.00
2022-08-22T01:29:37.396Z,99.90
2022-08-22T01:34:57.918Z,99.90
2022-08-22T01:40:03.849Z,99.90
2022-08-22T01:45:05.040Z,99.90
2022-08-22T01:49:56.815Z,99.90
2022-08-22T01:54:47.680Z,99.90
2022-08-22T01:59:42.329Z,1.00
2022-08-22T02:04:38.746Z,1.00
2022-08-22T02:09:35.646Z,1.00
2022-08-22T02:14:28.472Z,1.00
2022-08-22T02:19:33.128Z,1.00
2022-08-22T02:24:23.701Z,99.90
2022-08-22T02:29:16.766Z,99.90
2022-08-22T02:34:04.104Z,99.90
2022-08-22T02:38:57.144Z,99.90
2022-08-22T02:43:46.469Z,99.90
2022-08-22T02:48:43.418Z,99.90
2022-08-22T02:53:37.858Z,99.90
2022-08-22T02:58:30.107Z,1.00
2022-08-22T03:03:20.406Z,1.00
2022-08-22T03:08:13.333Z,99.90
2022-08-22T03:13:08.061Z,99.90
2022-08-22T03:17:57.335Z,99.90
2022-08-22T03:22:49.627Z,1.00
2022-08-22T03:27:42.373Z,1.00
2022-08-22T03:32:46.784Z,1.00
2022-08-22T03:37:40.584Z,1.00
2022-08-22T03:43:01.398Z,1.00
2022-08-22T03:48:04.729Z,1.00
2022-08-22T03:53:27.702Z,1.00
2022-08-22T03:58:59.155Z,1.00
2022-08-22T04:04:19.243Z,1.00
2022-08-22T04:09:41.349Z,99.90
2022-08-22T04:14:40.337Z,99.90
2022-08-22T04:20:00.096Z,99.90
2022-08-22T04:24:53.884Z,73.60
2022-08-22T04:29:46.440Z,23.20
2022-08-22T04:34:36.320Z,19.60
2022-08-22T04:39:24.726Z,17.40
2022-08-22T04:44:15.335Z,1.00
2022-08-22T04:49:06.225Z,1.00
2022-08-22T04:54:12.235Z,1.00
2022-08-22T04:58:59.364Z,1.00
2022-08-22T05:03:51.006Z,1.00
2022-08-22T05:08:40.403Z,1.00
2022-08-22T05:13:29.741Z,1.00
2022-08-22T05:18:19.211Z,1.00
2022-08-22T05:23:16.975Z,1.00
2022-08-22T05:28:10.707Z,1.00
2022-08-22T05:32:59.167Z,1.00
2022-08-22T05:37:46.122Z,1.00
2022-08-22T05:42:34.250Z,1.00
2022-08-22T05:47:24.416Z,1.00
2022-08-22T05:52:17.218Z,1.00
2022-08-22T05:57:08.554Z,1.00
2022-08-22T06:02:04.163Z,1.00
2022-08-22T06:06:57.009Z,1.00
2022-08-22T06:11:44.968Z,1.00
2022-08-22T06:16:47.520Z,1.00
2022-08-22T06:21:39.492Z,1.00
2022-08-22T06:26:29.190Z,1.00
2022-08-22T06:31:18.295Z,1.00
2022-08-22T06:36:23.359Z,1.00
2022-08-22T06:41:10.742Z,1.00
2022-08-22T06:45:56.170Z,1.00
2022-08-22T06:50:41.857Z,1.00
2022-08-22T06:55:27.451Z,1.00
2022-08-22T07:00:16.209Z,1.00
2022-08-22T07:05:01.395Z,1.00
2022-08-22T07:09:45.233Z,1.00
2022-08-22T07:14:33.812Z,1.00
2022-08-22T07:19:27.428Z,1.00
2022-08-22T07:24:15.975Z,1.00
2022-08-22T07:29:11.219Z,1.00
2022-08-22T07:34:00.657Z,1.00
2022-08-22T07:38:50.237Z,1.00
2022-08-22T07:43:42.684Z,1.00
2022-08-22T07:48:31.047Z,1.00
2022-08-22T07:53:26.640Z,1.00
2022-08-22T07:58:13.534Z,1.00
2022-08-22T08:03:02.624Z,1.00
2022-08-22T08:07:48.175Z,1.00
2022-08-22T08:12:36.134Z,1.00
2022-08-22T08:17:26.952Z,1.00
2022-08-22T08:22:19.436Z,1.00
2022-08-22T08:27:24.280Z,1.00
2022-08-22T08:32:11.385Z,1.00
2022-08-22T08:36:58.947Z,1.00
2022-08-22T08:42:21.213Z,1.00
2022-08-22T08:47:25.006Z,1.00
2022-08-22T08:52:40.499Z,1.00
2022-08-22T08:57:38.694Z,1.00
2022-08-22T09:02:45.120Z,1.00
2022-08-22T09:07:56.807Z,1.00
2022-08-22T09:13:12.504Z,1.00
2022-08-22T09:18:46.393Z,1.00
2022-08-22T09:24:07.087Z,1.00
2022-08-22T09:29:00.390Z,1.00
2022-08-22T09:33:54.683Z,1.00
2022-08-22T09:38:48.294Z,1.00
2022-08-22T09:43:44.729Z,1.00
2022-08-22T09:48:46.518Z,1.00
2022-08-22T09:53:53.071Z,1.00
2022-08-22T09:58:43.181Z,1.00
2022-08-22T10:03:53.583Z,1.00
2022-08-22T10:08:46.700Z,1.00
2022-08-22T10:13:46.056Z,1.00
2022-08-22T10:18:44.023Z,1.00
2022-08-22T10:23:45.929Z,1.00
2022-08-22T10:28:49.491Z,1.00
2022-08-22T10:33:37.645Z,1.00
2022-08-22T10:38:28.168Z,1.00
2022-08-22T10:43:16.028Z,1.00
2022-08-22T10:48:35.748Z,1.00
2022-08-22T10:53:34.956Z,1.00
2022-08-22T10:58:29.355Z,1.00
2022-08-22T11:03:23.229Z,1.00
2022-08-22T11:08:47.896Z,1.00
2022-08-22T11:13:43.217Z,1.00
2022-08-22T11:18:40.705Z,1.00
2022-08-22T11:23:37.465Z,1.00
2022-08-22T11:28:50.821Z,1.00
2022-08-22T11:33:47.360Z,1.00
2022-08-22T11:38:38.564Z,1.00
2022-08-22T11:43:38.357Z,1.00
2022-08-22T11:48:27.932Z,1.00
2022-08-22T11:53:29.663Z,1.00
2022-08-22T11:58:29.308Z,1.00
2022-08-22T12:03:58.760Z,1.00
2022-08-22T12:09:18.583Z,1.00
2022-08-22T12:14:06.620Z,1.00
2022-08-22T12:18:56.819Z,1.00
2022-08-22T12:24:22.234Z,1.00
2022-08-22T12:29:33.638Z,1.00
2022-08-22T12:34:33.972Z,1.00
2022-08-22T12:39:36.042Z,1.00
2022-08-22T12:44:37.751Z,1.00
2022-08-22T12:49:36.950Z,1.00
2022-08-22T12:54:41.708Z,1.00
2022-08-22T12:59:32.135Z,1.00
2022-08-22T13:04:32.707Z,1.00
2022-08-22T13:09:28.659Z,1.00
2022-08-22T13:14:19.575Z,1.00
2022-08-22T13:19:13.519Z,1.00
2022-08-22T13:24:10.512Z,1.00
2022-08-22T13:29:24.586Z,1.00
2022-08-22T13:34:19.819Z,1.00
2022-08-22T13:39:23.691Z,1.00
2022-08-22T13:44:22.453Z,1.00
2022-08-22T13:49:14.248Z,1.00
2022-08-22T13:54:10.793Z,1.00
2022-08-22T13:59:00.516Z,1.00
2022-08-22T14:03:49.796Z,1.00
2022-08-22T14:08:37.743Z,1.00
2022-08-22T14:13:44.604Z,1.00
2022-08-22T14:18:35.977Z,1.00
2022-08-22T14:23:30.516Z,1.00
2022-08-22T14:28:28.512Z,1.00
2022-08-22T14:33:20.318Z,1.00
2022-08-22T14:38:21.494Z,1.00
2022-08-22T14:43:24.850Z,1.00
2022-08-22T14:48:30.283Z,1.00
2022-08-22T14:53:26.591Z,1.00
2022-08-22T14:58:27.655Z,1.00
2022-08-22T15:03:17.527Z,1.00
2022-08-22T15:08:02.724Z,1.00
2022-08-22T15:12:53.987Z,1.00
2022-08-22T15:17:44.094Z,1.00
2022-08-22T15:22:30.314Z,1.00
2022-08-22T15:27:18.138Z,1.00
2022-08-22T15:32:04.734Z,1.00
2022-08-22T15:37:08.506Z,1.00
2022-08-22T15:41:57.719Z,1.00
2022-08-22T15:46:44.951Z,1.00
2022-08-22T15:51:38.180Z,1.00
2022-08-22T15:56:28.939Z,1.00
2022-08-22T16:01:19.718Z,1.00
2022-08-22T16:06:08.002Z,1.00
2022-08-22T16:10:56.086Z,1.00
2022-08-22T16:16:02.302Z,1.00
2022-08-22T16:20:56.681Z,1.00
2022-08-22T16:26:15.200Z,1.00
2022-08-22T16:31:14.630Z,1.00
2022-08-22T16:36:46.406Z,1.00
2022-08-22T16:41:36.964Z,1.00
2022-08-22T16:46:33.290Z,1.00
2022-08-22T16:51:21.336Z,1.00
2022-08-22T16:56:18.142Z,1.00
2022-08-22T17:01:12.433Z,1.00
2022-08-22T17:06:06.213Z,1.00
2022-08-22T17:11:00.222Z,1.00
2022-08-22T17:15:57.928Z,1.00
2022-08-22T17:20:48.824Z,1.00
2022-08-22T17:25:39.408Z,1.00
2022-08-22T17:30:30.412Z,1.00
2022-08-22T17:35:26.084Z,1.00
2022-08-22T17:40:27.833Z,1.00
2022-08-22T17:45:23.426Z,1.00
2022-08-22T17:50:21.267Z,1.00
2022-08-22T17:55:15.530Z,1.00
2022-08-22T18:00:05.634Z,1.00
2022-08-22T18:05:03.184Z,1.00
2022-08-22T18:09:52.980Z,1.00
2022-08-22T18:14:46.596Z,1.00
2022-08-22T18:19:44.502Z,1.00
2022-08-22T18:24:33.725Z,1.00
2022-08-22T18:29:20.205Z,1.00
2022-08-22T18:34:10.812Z,1.00
2022-08-22T18:39:03.049Z,1.00
2022-08-22T18:43:49.058Z,1.00
2022-08-22T18:48:59.276Z,1.00
2022-08-22T18:53:48.829Z,1.00
2022-08-22T18:59:05.188Z,1.00
2022-08-22T19:04:40.970Z,1.00
2022-08-22T19:09:52.950Z,1.00
2022-08-22T19:15:06.550Z,1.00
2022-08-22T19:20:16.210Z,1.00
2022-08-22T19:25:09.729Z,1.00
2022-08-22T19:29:59.431Z,1.00
2022-08-22T19:34:46.985Z,1.00
2022-08-22T19:39:54.657Z,1.00
2022-08-22T19:44:42.239Z,1.00
2022-08-22T19:49:30.842Z,1.00
2022-08-22T19:54:21.162Z,1.00
2022-08-22T19:59:20.259Z,1.00
2022-08-22T20:04:08.579Z,1.00
2022-08-22T20:09:03.719Z,1.00
2022-08-22T20:13:47.756Z,1.00
2022-08-22T20:19:06.627Z,1.00
2022-08-22T20:23:53.128Z,1.00
2022-08-22T20:28:47.146Z,1.00
2022-08-22T20:33:34.972Z,1.00
2022-08-22T20:38:23.534Z,1.00
2022-08-22T20:43:16.076Z,1.00
2022-08-22T20:48:01.505Z,1.00
2022-08-22T20:52:51.773Z,1.00
2022-08-22T20:57:36.981Z,1.00
2022-08-22T21:02:25.926Z,1.00
2022-08-22T21:07:09.804Z,1.00
2022-08-22T21:11:53.557Z,42.50
2022-08-22T21:16:37.313Z,99.90
2022-08-22T21:21:24.820Z,99.90
2022-08-22T21:26:11.509Z,1.00
2022-08-22T21:30:55.208Z,1.00
2022-08-22T21:35:38.990Z,99.90
2022-08-22T21:40:30.544Z,1.00
2022-08-22T21:45:27.105Z,1.00
2022-08-22T21:50:31.789Z,1.00
2022-08-22T21:55:17.935Z,99.90
2022-08-22T22:00:04.685Z,99.90
2022-08-22T22:04:56.737Z,99.90
2022-08-22T22:09:40.304Z,99.90
2022-08-22T22:14:30.712Z,99.90
2022-08-22T22:19:15.615Z,99.90
2022-08-22T22:23:59.247Z,99.90
2022-08-22T22:28:47.480Z,99.90
2022-08-22T22:33:33.622Z,99.90
2022-08-22T22:38:23.762Z,99.90
2022-08-22T22:43:07.772Z,99.90
2022-08-22T22:47:51.492Z,99.90
2022-08-22T22:52:35.014Z,99.90
2022-08-22T22:57:26.086Z,99.90
2022-08-22T23:02:12.130Z,99.90
2022-08-22T23:06:55.951Z,99.90
2022-08-22T23:11:39.576Z,99.90
2022-08-22T23:16:27.975Z,99.90
2022-08-22T23:21:12.608Z,99.90
2022-08-22T23:25:56.053Z,99.90
2022-08-22T23:30:39.664Z,99.90
2022-08-22T23:35:24.567Z,99.90
2022-08-22T23:40:09.670Z,99.90
2022-08-22T23:44:53.740Z,99.90
2022-08-22T23:49:38.715Z,99.90
2022-08-22T23:54:24.099Z,99.90
2022-08-22T23:59:10.621Z,99.90
